sensor_id;sensor_type;location;lat;lon;timestamp;P1;durP1;ratioP1;P2;durP2;ratioP2
50757;SDS011;36732;47.980;11.652;2023-04-06T00:01:41;6.05;;;3.47;;
50757;SDS011;36732;47.980;11.652;2023-04-06T00:04:07;3.83;;;3.00;;
50757;SDS011;36732;47.980;11.652;2023-04-06T00:06:33;2.97;;;2.60;;
50757;SDS011;36732;47.980;11.652;2023-04-06T00:08:59;2.95;;;2.65;;
50757;SDS011;36732;47.980;11.652;2023-04-06T00:11:25;3.80;;;2.75;;
50757;SDS011;36732;47.980;11.652;2023-04-06T00:13:51;3.88;;;2.88;;
50757;SDS011;36732;47.980;11.652;2023-04-06T00:16:17;4.53;;;2.90;;
50757;SDS011;36732;47.980;11.652;2023-04-06T00:18:43;3.65;;;2.83;;
50757;SDS011;36732;47.980;11.652;2023-04-06T00:21:13;4.43;;;3.25;;
50757;SDS011;36732;47.980;11.652;2023-04-06T00:23:39;3.90;;;3.05;;
50757;SDS011;36732;47.980;11.652;2023-04-06T00:26:06;4.28;;;3.10;;
50757;SDS011;36732;47.980;11.652;2023-04-06T00:28:32;3.88;;;2.83;;
50757;SDS011;36732;47.980;11.652;2023-04-06T00:30:58;3.65;;;2.70;;
50757;SDS011;36732;47.980;11.652;2023-04-06T00:33:23;4.72;;;2.83;;
50757;SDS011;36732;47.980;11.652;2023-04-06T00:35:49;3.58;;;2.75;;
50757;SDS011;36732;47.980;11.652;2023-04-06T00:38:16;3.30;;;2.70;;
50757;SDS011;36732;47.980;11.652;2023-04-06T00:40:42;4.05;;;2.90;;
50757;SDS011;36732;47.980;11.652;2023-04-06T00:43:09;4.78;;;3.10;;
50757;SDS011;36732;47.980;11.652;2023-04-06T00:45:37;4.70;;;3.00;;
50757;SDS011;36732;47.980;11.652;2023-04-06T00:48:04;4.07;;;2.85;;
50757;SDS011;36732;47.980;11.652;2023-04-06T00:50:31;3.92;;;2.83;;
50757;SDS011;36732;47.980;11.652;2023-04-06T00:52:57;3.60;;;2.97;;
50757;SDS011;36732;47.980;11.652;2023-04-06T00:55:24;3.42;;;2.80;;
50757;SDS011;36732;47.980;11.652;2023-04-06T00:57:51;4.75;;;3.13;;
50757;SDS011;36732;47.980;11.652;2023-04-06T01:00:17;3.05;;;2.72;;
50757;SDS011;36732;47.980;11.652;2023-04-06T01:02:43;2.47;;;2.20;;
50757;SDS011;36732;47.980;11.652;2023-04-06T01:05:10;3.17;;;2.67;;
50757;SDS011;36732;47.980;11.652;2023-04-06T01:07:36;3.70;;;3.13;;
50757;SDS011;36732;47.980;11.652;2023-04-06T01:10:01;3.20;;;2.88;;
50757;SDS011;36732;47.980;11.652;2023-04-06T01:12:27;3.85;;;2.80;;
50757;SDS011;36732;47.980;11.652;2023-04-06T01:14:53;4.70;;;3.72;;
50757;SDS011;36732;47.980;11.652;2023-04-06T01:17:19;3.03;;;2.67;;
50757;SDS011;36732;47.980;11.652;2023-04-06T01:19:45;3.00;;;2.42;;
50757;SDS011;36732;47.980;11.652;2023-04-06T01:22:15;3.47;;;2.63;;
50757;SDS011;36732;47.980;11.652;2023-04-06T01:27:35;5.68;;;2.72;;
50757;SDS011;36732;47.980;11.652;2023-04-06T01:30:01;2.75;;;2.50;;
50757;SDS011;36732;47.980;11.652;2023-04-06T01:32:27;3.85;;;2.40;;
50757;SDS011;36732;47.980;11.652;2023-04-06T01:34:53;3.38;;;2.60;;
50757;SDS011;36732;47.980;11.652;2023-04-06T01:37:19;5.43;;;2.95;;
50757;SDS011;36732;47.980;11.652;2023-04-06T01:39:45;4.22;;;2.80;;
50757;SDS011;36732;47.980;11.652;2023-04-06T01:42:11;4.53;;;3.20;;
50757;SDS011;36732;47.980;11.652;2023-04-06T01:44:37;4.00;;;2.53;;
50757;SDS011;36732;47.980;11.652;2023-04-06T01:47:02;3.97;;;2.80;;
50757;SDS011;36732;47.980;11.652;2023-04-06T01:49:28;3.90;;;2.67;;
50757;SDS011;36732;47.980;11.652;2023-04-06T01:51:54;3.10;;;2.60;;
50757;SDS011;36732;47.980;11.652;2023-04-06T01:54:19;3.45;;;2.60;;
50757;SDS011;36732;47.980;11.652;2023-04-06T01:56:45;3.72;;;2.80;;
50757;SDS011;36732;47.980;11.652;2023-04-06T01:59:12;3.95;;;2.85;;
50757;SDS011;36732;47.980;11.652;2023-04-06T02:01:37;4.78;;;2.75;;
50757;SDS011;36732;47.980;11.652;2023-04-06T02:04:03;3.47;;;2.63;;
50757;SDS011;36732;47.980;11.652;2023-04-06T02:06:29;2.83;;;2.40;;
50757;SDS011;36732;47.980;11.652;2023-04-06T02:08:55;3.30;;;2.55;;
50757;SDS011;36732;47.980;11.652;2023-04-06T02:11:21;3.15;;;2.50;;
50757;SDS011;36732;47.980;11.652;2023-04-06T02:13:46;3.10;;;2.70;;
50757;SDS011;36732;47.980;11.652;2023-04-06T02:16:12;3.10;;;2.58;;
50757;SDS011;36732;47.980;11.652;2023-04-06T02:18:38;3.80;;;2.85;;
50757;SDS011;36732;47.980;11.652;2023-04-06T02:21:04;3.10;;;2.63;;
50757;SDS011;36732;47.980;11.652;2023-04-06T02:23:29;4.18;;;2.28;;
50757;SDS011;36732;47.980;11.652;2023-04-06T02:25:55;5.18;;;3.08;;
50757;SDS011;36732;47.980;11.652;2023-04-06T02:28:21;3.38;;;2.63;;
50757;SDS011;36732;47.980;11.652;2023-04-06T02:30:46;4.63;;;3.05;;
50757;SDS011;36732;47.980;11.652;2023-04-06T02:33:12;3.30;;;2.85;;
50757;SDS011;36732;47.980;11.652;2023-04-06T02:35:38;3.50;;;2.47;;
50757;SDS011;36732;47.980;11.652;2023-04-06T02:38:03;4.10;;;3.00;;
50757;SDS011;36732;47.980;11.652;2023-04-06T02:40:29;4.63;;;2.70;;
50757;SDS011;36732;47.980;11.652;2023-04-06T02:42:55;2.85;;;2.60;;
50757;SDS011;36732;47.980;11.652;2023-04-06T02:45:20;3.63;;;3.00;;
50757;SDS011;36732;47.980;11.652;2023-04-06T02:47:46;3.75;;;2.80;;
50757;SDS011;36732;47.980;11.652;2023-04-06T02:50:12;4.18;;;2.70;;
50757;SDS011;36732;47.980;11.652;2023-04-06T02:52:38;3.47;;;2.97;;
50757;SDS011;36732;47.980;11.652;2023-04-06T02:55:03;4.22;;;3.08;;
50757;SDS011;36732;47.980;11.652;2023-04-06T02:57:32;4.25;;;3.30;;
50757;SDS011;36732;47.980;11.652;2023-04-06T02:59:58;5.38;;;3.25;;
50757;SDS011;36732;47.980;11.652;2023-04-06T03:02:23;5.38;;;3.20;;
50757;SDS011;36732;47.980;11.652;2023-04-06T03:04:49;4.30;;;2.80;;
50757;SDS011;36732;47.980;11.652;2023-04-06T03:07:15;4.30;;;3.17;;
50757;SDS011;36732;47.980;11.652;2023-04-06T03:09:40;4.30;;;3.30;;
50757;SDS011;36732;47.980;11.652;2023-04-06T03:12:06;4.55;;;3.15;;
50757;SDS011;36732;47.980;11.652;2023-04-06T03:14:32;4.00;;;3.58;;
50757;SDS011;36732;47.980;11.652;2023-04-06T03:16:58;3.47;;;3.17;;
50757;SDS011;36732;47.980;11.652;2023-04-06T03:19:24;4.03;;;3.30;;
50757;SDS011;36732;47.980;11.652;2023-04-06T03:21:49;4.22;;;2.83;;
50757;SDS011;36732;47.980;11.652;2023-04-06T03:24:15;4.32;;;3.38;;
50757;SDS011;36732;47.980;11.652;2023-04-06T03:26:41;4.47;;;3.40;;
50757;SDS011;36732;47.980;11.652;2023-04-06T03:29:07;4.03;;;3.10;;
50757;SDS011;36732;47.980;11.652;2023-04-06T03:31:32;4.22;;;3.28;;
50757;SDS011;36732;47.980;11.652;2023-04-06T03:33:58;4.28;;;3.47;;
50757;SDS011;36732;47.980;11.652;2023-04-06T03:36:24;3.85;;;3.42;;
50757;SDS011;36732;47.980;11.652;2023-04-06T03:38:51;5.53;;;3.80;;
50757;SDS011;36732;47.980;11.652;2023-04-06T03:41:18;6.13;;;3.97;;
50757;SDS011;36732;47.980;11.652;2023-04-06T03:43:44;5.00;;;3.70;;
50757;SDS011;36732;47.980;11.652;2023-04-06T03:46:10;4.38;;;3.63;;
50757;SDS011;36732;47.980;11.652;2023-04-06T03:48:36;4.68;;;3.15;;
50757;SDS011;36732;47.980;11.652;2023-04-06T03:51:02;5.82;;;3.30;;
50757;SDS011;36732;47.980;11.652;2023-04-06T03:53:27;5.18;;;4.13;;
50757;SDS011;36732;47.980;11.652;2023-04-06T03:55:53;4.88;;;3.53;;
50757;SDS011;36732;47.980;11.652;2023-04-06T03:58:19;4.07;;;3.30;;
50757;SDS011;36732;47.980;11.652;2023-04-06T04:00:44;4.30;;;3.40;;
50757;SDS011;36732;47.980;11.652;2023-04-06T04:03:10;4.40;;;3.40;;
50757;SDS011;36732;47.980;11.652;2023-04-06T04:05:36;4.25;;;2.78;;
50757;SDS011;36732;47.980;11.652;2023-04-06T04:08:01;4.75;;;3.10;;
50757;SDS011;36732;47.980;11.652;2023-04-06T04:10:27;5.13;;;3.33;;
50757;SDS011;36732;47.980;11.652;2023-04-06T04:12:53;6.13;;;3.42;;
50757;SDS011;36732;47.980;11.652;2023-04-06T04:15:19;4.07;;;2.88;;
50757;SDS011;36732;47.980;11.652;2023-04-06T04:17:44;3.90;;;3.40;;
50757;SDS011;36732;47.980;11.652;2023-04-06T04:20:14;3.80;;;3.30;;
50757;SDS011;36732;47.980;11.652;2023-04-06T04:22:41;4.53;;;2.65;;
50757;SDS011;36732;47.980;11.652;2023-04-06T04:25:06;6.85;;;3.55;;
50757;SDS011;36732;47.980;11.652;2023-04-06T04:27:33;3.92;;;3.35;;
50757;SDS011;36732;47.980;11.652;2023-04-06T04:29:59;4.05;;;3.05;;
50757;SDS011;36732;47.980;11.652;2023-04-06T04:32:25;4.13;;;3.40;;
50757;SDS011;36732;47.980;11.652;2023-04-06T04:34:52;7.25;;;3.40;;
50757;SDS011;36732;47.980;11.652;2023-04-06T04:37:18;4.55;;;3.33;;
50757;SDS011;36732;47.980;11.652;2023-04-06T04:39:44;8.27;;;3.17;;
50757;SDS011;36732;47.980;11.652;2023-04-06T04:42:10;6.53;;;3.53;;
50757;SDS011;36732;47.980;11.652;2023-04-06T04:44:36;5.03;;;3.25;;
50757;SDS011;36732;47.980;11.652;2023-04-06T04:47:01;3.63;;;2.90;;
50757;SDS011;36732;47.980;11.652;2023-04-06T04:49:27;3.92;;;2.70;;
50757;SDS011;36732;47.980;11.652;2023-04-06T04:51:53;3.45;;;2.70;;
50757;SDS011;36732;47.980;11.652;2023-04-06T04:54:19;4.20;;;3.22;;
50757;SDS011;36732;47.980;11.652;2023-04-06T04:56:44;6.60;;;4.20;;
50757;SDS011;36732;47.980;11.652;2023-04-06T04:59:10;7.55;;;5.22;;
50757;SDS011;36732;47.980;11.652;2023-04-06T05:01:36;8.98;;;5.65;;
50757;SDS011;36732;47.980;11.652;2023-04-06T05:04:02;9.25;;;5.20;;
50757;SDS011;36732;47.980;11.652;2023-04-06T05:06:27;8.82;;;5.10;;
50757;SDS011;36732;47.980;11.652;2023-04-06T05:08:53;6.30;;;4.07;;
50757;SDS011;36732;47.980;11.652;2023-04-06T05:11:19;8.85;;;4.47;;
50757;SDS011;36732;47.980;11.652;2023-04-06T05:13:44;4.95;;;4.00;;
50757;SDS011;36732;47.980;11.652;2023-04-06T05:16:10;6.18;;;3.65;;
50757;SDS011;36732;47.980;11.652;2023-04-06T05:18:36;5.00;;;3.63;;
50757;SDS011;36732;47.980;11.652;2023-04-06T05:21:02;4.88;;;3.58;;
50757;SDS011;36732;47.980;11.652;2023-04-06T05:23:27;9.20;;;4.05;;
50757;SDS011;36732;47.980;11.652;2023-04-06T05:25:53;5.07;;;3.88;;
50757;SDS011;36732;47.980;11.652;2023-04-06T05:28:19;4.70;;;4.15;;
50757;SDS011;36732;47.980;11.652;2023-04-06T05:30:45;5.43;;;4.15;;
50757;SDS011;36732;47.980;11.652;2023-04-06T05:33:11;5.80;;;4.63;;
50757;SDS011;36732;47.980;11.652;2023-04-06T05:35:37;8.05;;;4.63;;
50757;SDS011;36732;47.980;11.652;2023-04-06T05:38:02;9.07;;;4.30;;
50757;SDS011;36732;47.980;11.652;2023-04-06T05:40:28;6.38;;;4.35;;
50757;SDS011;36732;47.980;11.652;2023-04-06T05:42:54;6.97;;;5.05;;
50757;SDS011;36732;47.980;11.652;2023-04-06T05:45:20;10.00;;;6.25;;
50757;SDS011;36732;47.980;11.652;2023-04-06T05:47:46;12.50;;;6.95;;
50757;SDS011;36732;47.980;11.652;2023-04-06T05:50:12;10.55;;;6.40;;
50757;SDS011;36732;47.980;11.652;2023-04-06T05:52:40;11.57;;;7.15;;
50757;SDS011;36732;47.980;11.652;2023-04-06T05:55:08;11.05;;;7.18;;
50757;SDS011;36732;47.980;11.652;2023-04-06T05:57:35;15.23;;;8.75;;
50757;SDS011;36732;47.980;11.652;2023-04-06T06:00:00;10.55;;;7.85;;
50757;SDS011;36732;47.980;11.652;2023-04-06T06:02:30;9.38;;;7.20;;
50757;SDS011;36732;47.980;11.652;2023-04-06T06:04:56;10.40;;;7.30;;
50757;SDS011;36732;47.980;11.652;2023-04-06T06:07:23;10.75;;;6.72;;
50757;SDS011;36732;47.980;11.652;2023-04-06T06:09:48;19.27;;;5.72;;
50757;SDS011;36732;47.980;11.652;2023-04-06T06:12:14;8.02;;;4.97;;
50757;SDS011;36732;47.980;11.652;2023-04-06T06:14:40;9.40;;;5.13;;
50757;SDS011;36732;47.980;11.652;2023-04-06T06:17:06;6.97;;;4.70;;
50757;SDS011;36732;47.980;11.652;2023-04-06T06:19:31;6.43;;;3.60;;
50757;SDS011;36732;47.980;11.652;2023-04-06T06:21:57;5.45;;;4.03;;
50757;SDS011;36732;47.980;11.652;2023-04-06T06:24:24;6.50;;;4.45;;
50757;SDS011;36732;47.980;11.652;2023-04-06T06:26:50;8.02;;;4.40;;
50757;SDS011;36732;47.980;11.652;2023-04-06T06:29:16;5.30;;;3.72;;
50757;SDS011;36732;47.980;11.652;2023-04-06T06:31:41;5.15;;;4.03;;
50757;SDS011;36732;47.980;11.652;2023-04-06T06:34:07;5.30;;;4.00;;
50757;SDS011;36732;47.980;11.652;2023-04-06T06:36:33;4.15;;;3.75;;
50757;SDS011;36732;47.980;11.652;2023-04-06T06:39:00;4.65;;;3.70;;
50757;SDS011;36732;47.980;11.652;2023-04-06T06:41:28;7.38;;;4.13;;
50757;SDS011;36732;47.980;11.652;2023-04-06T06:43:53;5.75;;;4.05;;
50757;SDS011;36732;47.980;11.652;2023-04-06T06:46:20;6.95;;;4.45;;
50757;SDS011;36732;47.980;11.652;2023-04-06T06:48:46;5.57;;;4.22;;
50757;SDS011;36732;47.980;11.652;2023-04-06T06:51:11;5.45;;;4.45;;
50757;SDS011;36732;47.980;11.652;2023-04-06T06:53:37;7.32;;;5.00;;
50757;SDS011;36732;47.980;11.652;2023-04-06T06:56:03;7.18;;;4.45;;
50757;SDS011;36732;47.980;11.652;2023-04-06T06:58:29;5.80;;;4.35;;
50757;SDS011;36732;47.980;11.652;2023-04-06T07:00:58;6.50;;;5.05;;
50757;SDS011;36732;47.980;11.652;2023-04-06T07:03:24;5.45;;;4.47;;
50757;SDS011;36732;47.980;11.652;2023-04-06T07:05:50;5.20;;;4.20;;
50757;SDS011;36732;47.980;11.652;2023-04-06T07:08:21;5.35;;;4.35;;
50757;SDS011;36732;47.980;11.652;2023-04-06T07:10:49;5.78;;;4.38;;
50757;SDS011;36732;47.980;11.652;2023-04-06T07:13:17;7.80;;;4.93;;
50757;SDS011;36732;47.980;11.652;2023-04-06T07:15:47;5.78;;;4.78;;
50757;SDS011;36732;47.980;11.652;2023-04-06T07:18:14;7.05;;;4.68;;
50757;SDS011;36732;47.980;11.652;2023-04-06T07:20:41;7.47;;;5.18;;
50757;SDS011;36732;47.980;11.652;2023-04-06T07:23:06;6.95;;;4.80;;
50757;SDS011;36732;47.980;11.652;2023-04-06T07:25:32;6.72;;;4.85;;
50757;SDS011;36732;47.980;11.652;2023-04-06T07:27:58;10.38;;;5.00;;
50757;SDS011;36732;47.980;11.652;2023-04-06T07:30:24;5.88;;;5.20;;
50757;SDS011;36732;47.980;11.652;2023-04-06T07:32:53;8.73;;;5.07;;
50757;SDS011;36732;47.980;11.652;2023-04-06T07:35:20;8.65;;;5.15;;
50757;SDS011;36732;47.980;11.652;2023-04-06T07:37:49;5.68;;;4.75;;
50757;SDS011;36732;47.980;11.652;2023-04-06T07:40:15;9.32;;;5.18;;
50757;SDS011;36732;47.980;11.652;2023-04-06T07:42:41;6.43;;;4.63;;
50757;SDS011;36732;47.980;11.652;2023-04-06T07:45:07;7.15;;;4.53;;
50757;SDS011;36732;47.980;11.652;2023-04-06T07:47:33;6.90;;;5.22;;
50757;SDS011;36732;47.980;11.652;2023-04-06T07:49:59;6.60;;;5.03;;
50757;SDS011;36732;47.980;11.652;2023-04-06T07:52:24;7.25;;;4.93;;
50757;SDS011;36732;47.980;11.652;2023-04-06T07:54:50;6.00;;;4.90;;
50757;SDS011;36732;47.980;11.652;2023-04-06T07:57:16;7.22;;;4.80;;
50757;SDS011;36732;47.980;11.652;2023-04-06T07:59:43;7.40;;;4.82;;
50757;SDS011;36732;47.980;11.652;2023-04-06T08:02:08;5.93;;;4.93;;
50757;SDS011;36732;47.980;11.652;2023-04-06T08:04:35;6.63;;;5.35;;
50757;SDS011;36732;47.980;11.652;2023-04-06T08:07:01;8.70;;;7.60;;
50757;SDS011;36732;47.980;11.652;2023-04-06T08:09:27;7.47;;;6.00;;
50757;SDS011;36732;47.980;11.652;2023-04-06T08:11:53;7.60;;;6.07;;
50757;SDS011;36732;47.980;11.652;2023-04-06T08:14:18;7.93;;;5.50;;
50757;SDS011;36732;47.980;11.652;2023-04-06T08:16:45;8.63;;;5.57;;
50757;SDS011;36732;47.980;11.652;2023-04-06T08:19:11;6.95;;;5.53;;
50757;SDS011;36732;47.980;11.652;2023-04-06T08:21:37;9.73;;;7.22;;
50757;SDS011;36732;47.980;11.652;2023-04-06T08:24:04;9.93;;;7.60;;
50757;SDS011;36732;47.980;11.652;2023-04-06T08:26:31;8.63;;;7.38;;
50757;SDS011;36732;47.980;11.652;2023-04-06T08:28:56;10.15;;;8.13;;
50757;SDS011;36732;47.980;11.652;2023-04-06T08:31:22;11.68;;;7.55;;
50757;SDS011;36732;47.980;11.652;2023-04-06T08:33:48;8.85;;;6.18;;
50757;SDS011;36732;47.980;11.652;2023-04-06T08:36:14;9.43;;;5.53;;
50757;SDS011;36732;47.980;11.652;2023-04-06T08:38:40;7.90;;;5.57;;
50757;SDS011;36732;47.980;11.652;2023-04-06T08:41:11;6.72;;;5.03;;
50757;SDS011;36732;47.980;11.652;2023-04-06T08:43:41;9.55;;;6.53;;
50757;SDS011;36732;47.980;11.652;2023-04-06T08:46:23;7.30;;;5.40;;
50757;SDS011;36732;47.980;11.652;2023-04-06T08:49:02;6.00;;;4.93;;
50757;SDS011;36732;47.980;11.652;2023-04-06T08:51:28;6.63;;;5.55;;
50757;SDS011;36732;47.980;11.652;2023-04-06T08:53:58;10.35;;;6.10;;
50757;SDS011;36732;47.980;11.652;2023-04-06T08:56:25;6.50;;;5.57;;
50757;SDS011;36732;47.980;11.652;2023-04-06T08:58:53;6.85;;;5.72;;
50757;SDS011;36732;47.980;11.652;2023-04-06T09:01:23;6.82;;;4.85;;
50757;SDS011;36732;47.980;11.652;2023-04-06T09:03:52;8.65;;;5.43;;
50757;SDS011;36732;47.980;11.652;2023-04-06T09:06:21;11.45;;;6.05;;
50757;SDS011;36732;47.980;11.652;2023-04-06T09:08:47;9.57;;;5.65;;
50757;SDS011;36732;47.980;11.652;2023-04-06T09:11:14;9.50;;;6.07;;
50757;SDS011;36732;47.980;11.652;2023-04-06T09:13:47;7.07;;;5.93;;
50757;SDS011;36732;47.980;11.652;2023-04-06T09:16:18;8.55;;;6.18;;
50757;SDS011;36732;47.980;11.652;2023-04-06T09:18:45;6.55;;;5.88;;
50757;SDS011;36732;47.980;11.652;2023-04-06T09:21:12;9.65;;;5.68;;
50757;SDS011;36732;47.980;11.652;2023-04-06T09:23:38;6.18;;;5.57;;
50757;SDS011;36732;47.980;11.652;2023-04-06T09:26:05;8.15;;;6.00;;
50757;SDS011;36732;47.980;11.652;2023-04-06T09:33:40;7.15;;;5.63;;
50757;SDS011;36732;47.980;11.652;2023-04-06T09:36:08;6.80;;;6.10;;
50757;SDS011;36732;47.980;11.652;2023-04-06T09:38:36;7.20;;;5.82;;
50757;SDS011;36732;47.980;11.652;2023-04-06T09:41:03;5.70;;;4.95;;
50757;SDS011;36732;47.980;11.652;2023-04-06T09:43:29;6.80;;;5.03;;
50757;SDS011;36732;47.980;11.652;2023-04-06T09:45:55;5.82;;;5.18;;
50757;SDS011;36732;47.980;11.652;2023-04-06T09:48:22;5.80;;;4.82;;
50757;SDS011;36732;47.980;11.652;2023-04-06T09:50:51;6.28;;;4.88;;
50757;SDS011;36732;47.980;11.652;2023-04-06T09:53:23;5.25;;;4.75;;
50757;SDS011;36732;47.980;11.652;2023-04-06T09:55:52;6.32;;;4.85;;
50757;SDS011;36732;47.980;11.652;2023-04-06T09:58:22;6.40;;;5.10;;
50757;SDS011;36732;47.980;11.652;2023-04-06T10:00:59;6.05;;;5.45;;
50757;SDS011;36732;47.980;11.652;2023-04-06T10:03:42;7.07;;;5.93;;
50757;SDS011;36732;47.980;11.652;2023-04-06T10:06:15;7.85;;;5.90;;
50757;SDS011;36732;47.980;11.652;2023-04-06T10:08:47;6.25;;;5.53;;
50757;SDS011;36732;47.980;11.652;2023-04-06T10:11:16;5.97;;;5.38;;
50757;SDS011;36732;47.980;11.652;2023-04-06T10:13:43;7.20;;;5.03;;
50757;SDS011;36732;47.980;11.652;2023-04-06T10:16:14;6.20;;;5.35;;
50757;SDS011;36732;47.980;11.652;2023-04-06T10:18:42;5.40;;;4.88;;
50757;SDS011;36732;47.980;11.652;2023-04-06T10:21:14;6.45;;;5.22;;
50757;SDS011;36732;47.980;11.652;2023-04-06T10:23:47;7.80;;;6.20;;
50757;SDS011;36732;47.980;11.652;2023-04-06T10:26:17;7.05;;;5.40;;
50757;SDS011;36732;47.980;11.652;2023-04-06T10:28:46;5.93;;;5.20;;
50757;SDS011;36732;47.980;11.652;2023-04-06T10:31:13;6.50;;;5.47;;
50757;SDS011;36732;47.980;11.652;2023-04-06T10:33:39;5.63;;;5.03;;
50757;SDS011;36732;47.980;11.652;2023-04-06T10:36:12;7.00;;;5.60;;
50757;SDS011;36732;47.980;11.652;2023-04-06T10:38:40;6.53;;;5.18;;
50757;SDS011;36732;47.980;11.652;2023-04-06T10:41:11;7.40;;;5.25;;
50757;SDS011;36732;47.980;11.652;2023-04-06T10:43:38;7.65;;;5.00;;
50757;SDS011;36732;47.980;11.652;2023-04-06T10:46:06;6.55;;;5.47;;
50757;SDS011;36732;47.980;11.652;2023-04-06T10:48:37;6.32;;;5.00;;
50757;SDS011;36732;47.980;11.652;2023-04-06T10:51:11;8.43;;;5.78;;
50757;SDS011;36732;47.980;11.652;2023-04-06T10:53:41;6.28;;;5.28;;
50757;SDS011;36732;47.980;11.652;2023-04-06T10:56:14;5.78;;;5.15;;
50757;SDS011;36732;47.980;11.652;2023-04-06T10:58:45;7.18;;;5.22;;
50757;SDS011;36732;47.980;11.652;2023-04-06T11:01:17;5.38;;;4.65;;
50757;SDS011;36732;47.980;11.652;2023-04-06T11:03:48;5.63;;;5.03;;
50757;SDS011;36732;47.980;11.652;2023-04-06T11:06:23;6.25;;;4.90;;
50757;SDS011;36732;47.980;11.652;2023-04-06T11:08:56;6.53;;;5.20;;
50757;SDS011;36732;47.980;11.652;2023-04-06T11:11:23;5.07;;;4.60;;
50757;SDS011;36732;47.980;11.652;2023-04-06T11:13:54;5.93;;;5.13;;
50757;SDS011;36732;47.980;11.652;2023-04-06T11:16:23;6.78;;;4.93;;
50757;SDS011;36732;47.980;11.652;2023-04-06T11:18:59;4.88;;;4.38;;
50757;SDS011;36732;47.980;11.652;2023-04-06T11:21:31;5.65;;;4.60;;
50757;SDS011;36732;47.980;11.652;2023-04-06T11:24:14;4.78;;;4.22;;
50757;SDS011;36732;47.980;11.652;2023-04-06T11:26:48;6.05;;;4.15;;
50757;SDS011;36732;47.980;11.652;2023-04-06T11:29:28;5.72;;;4.47;;
50757;SDS011;36732;47.980;11.652;2023-04-06T11:32:00;4.30;;;3.83;;
50757;SDS011;36732;47.980;11.652;2023-04-06T11:34:28;4.68;;;4.10;;
50757;SDS011;36732;47.980;11.652;2023-04-06T11:36:56;5.03;;;4.15;;
50757;SDS011;36732;47.980;11.652;2023-04-06T11:39:24;4.35;;;3.85;;
50757;SDS011;36732;47.980;11.652;2023-04-06T11:41:53;6.25;;;4.00;;
50757;SDS011;36732;47.980;11.652;2023-04-06T11:47:00;5.00;;;4.40;;
50757;SDS011;36732;47.980;11.652;2023-04-06T11:49:27;5.88;;;4.20;;
50757;SDS011;36732;47.980;11.652;2023-04-06T11:51:54;6.30;;;5.05;;
50757;SDS011;36732;47.980;11.652;2023-04-06T11:54:34;5.20;;;4.15;;
50757;SDS011;36732;47.980;11.652;2023-04-06T11:57:03;7.10;;;4.32;;
50757;SDS011;36732;47.980;11.652;2023-04-06T11:59:30;5.72;;;4.47;;
50757;SDS011;36732;47.980;11.652;2023-04-06T12:02:00;6.15;;;4.85;;
50757;SDS011;36732;47.980;11.652;2023-04-06T12:04:27;5.90;;;4.75;;
50757;SDS011;36732;47.980;11.652;2023-04-06T12:06:53;5.90;;;4.50;;
50757;SDS011;36732;47.980;11.652;2023-04-06T12:09:19;6.93;;;5.03;;
50757;SDS011;36732;47.980;11.652;2023-04-06T12:11:45;5.85;;;4.78;;
50757;SDS011;36732;47.980;11.652;2023-04-06T12:14:12;5.80;;;4.30;;
50757;SDS011;36732;47.980;11.652;2023-04-06T12:16:38;5.97;;;4.65;;
50757;SDS011;36732;47.980;11.652;2023-04-06T12:19:04;5.72;;;4.10;;
50757;SDS011;36732;47.980;11.652;2023-04-06T12:21:30;4.90;;;4.00;;
50757;SDS011;36732;47.980;11.652;2023-04-06T12:23:57;5.10;;;4.60;;
50757;SDS011;36732;47.980;11.652;2023-04-06T12:26:23;5.38;;;4.65;;
50757;SDS011;36732;47.980;11.652;2023-04-06T12:28:50;7.72;;;4.00;;
50757;SDS011;36732;47.980;11.652;2023-04-06T12:31:19;4.35;;;3.75;;
50757;SDS011;36732;47.980;11.652;2023-04-06T12:33:47;4.88;;;4.38;;
50757;SDS011;36732;47.980;11.652;2023-04-06T12:36:15;5.60;;;4.28;;
50757;SDS011;36732;47.980;11.652;2023-04-06T12:38:48;4.45;;;4.05;;
50757;SDS011;36732;47.980;11.652;2023-04-06T12:41:14;4.93;;;4.05;;
50757;SDS011;36732;47.980;11.652;2023-04-06T12:43:40;5.13;;;3.92;;
50757;SDS011;36732;47.980;11.652;2023-04-06T12:46:07;7.95;;;4.32;;
50757;SDS011;36732;47.980;11.652;2023-04-06T12:48:33;4.10;;;3.70;;
50757;SDS011;36732;47.980;11.652;2023-04-06T12:51:00;5.30;;;4.10;;
50757;SDS011;36732;47.980;11.652;2023-04-06T12:53:28;4.68;;;3.45;;
50757;SDS011;36732;47.980;11.652;2023-04-06T12:55:54;5.03;;;3.38;;
50757;SDS011;36732;47.980;11.652;2023-04-06T12:58:21;5.20;;;3.90;;
50757;SDS011;36732;47.980;11.652;2023-04-06T13:00:47;5.22;;;3.95;;
50757;SDS011;36732;47.980;11.652;2023-04-06T13:03:15;6.85;;;3.50;;
50757;SDS011;36732;47.980;11.652;2023-04-06T13:05:44;5.20;;;3.42;;
50757;SDS011;36732;47.980;11.652;2023-04-06T13:08:17;3.88;;;3.47;;
50757;SDS011;36732;47.980;11.652;2023-04-06T13:10:48;3.72;;;3.33;;
50757;SDS011;36732;47.980;11.652;2023-04-06T13:13:17;4.30;;;3.90;;
50757;SDS011;36732;47.980;11.652;2023-04-06T13:15:52;5.45;;;3.88;;
50757;SDS011;36732;47.980;11.652;2023-04-06T13:18:20;3.88;;;3.47;;
50757;SDS011;36732;47.980;11.652;2023-04-06T13:20:47;4.82;;;3.70;;
50757;SDS011;36732;47.980;11.652;2023-04-06T13:23:13;4.20;;;3.47;;
50757;SDS011;36732;47.980;11.652;2023-04-06T13:25:40;4.10;;;3.60;;
50757;SDS011;36732;47.980;11.652;2023-04-06T13:28:05;5.00;;;3.42;;
50757;SDS011;36732;47.980;11.652;2023-04-06T13:30:32;5.55;;;4.15;;
50757;SDS011;36732;47.980;11.652;2023-04-06T13:32:58;4.50;;;3.95;;
50757;SDS011;36732;47.980;11.652;2023-04-06T13:35:24;5.65;;;4.03;;
50757;SDS011;36732;47.980;11.652;2023-04-06T13:37:49;4.47;;;4.05;;
50757;SDS011;36732;47.980;11.652;2023-04-06T13:40:17;4.72;;;3.83;;
50757;SDS011;36732;47.980;11.652;2023-04-06T13:42:43;4.93;;;3.75;;
50757;SDS011;36732;47.980;11.652;2023-04-06T13:45:10;4.28;;;3.58;;
50757;SDS011;36732;47.980;11.652;2023-04-06T13:47:36;4.07;;;3.67;;
50757;SDS011;36732;47.980;11.652;2023-04-06T13:50:01;4.32;;;3.67;;
50757;SDS011;36732;47.980;11.652;2023-04-06T13:52:28;4.88;;;4.00;;
50757;SDS011;36732;47.980;11.652;2023-04-06T13:54:54;4.40;;;3.92;;
50757;SDS011;36732;47.980;11.652;2023-04-06T13:57:20;5.50;;;3.70;;
50757;SDS011;36732;47.980;11.652;2023-04-06T13:59:46;4.15;;;3.75;;
50757;SDS011;36732;47.980;11.652;2023-04-06T14:02:14;4.60;;;3.90;;
50757;SDS011;36732;47.980;11.652;2023-04-06T14:04:40;6.25;;;3.65;;
50757;SDS011;36732;47.980;11.652;2023-04-06T14:07:06;3.80;;;3.40;;
50757;SDS011;36732;47.980;11.652;2023-04-06T14:09:32;4.30;;;3.80;;
50757;SDS011;36732;47.980;11.652;2023-04-06T14:11:58;3.80;;;3.45;;
50757;SDS011;36732;47.980;11.652;2023-04-06T14:14:24;5.30;;;3.30;;
50757;SDS011;36732;47.980;11.652;2023-04-06T14:16:51;3.85;;;3.25;;
50757;SDS011;36732;47.980;11.652;2023-04-06T14:19:17;6.55;;;3.70;;
50757;SDS011;36732;47.980;11.652;2023-04-06T14:21:44;4.55;;;3.80;;
50757;SDS011;36732;47.980;11.652;2023-04-06T14:24:10;3.92;;;3.53;;
50757;SDS011;36732;47.980;11.652;2023-04-06T14:26:37;5.45;;;4.00;;
50757;SDS011;36732;47.980;11.652;2023-04-06T14:29:04;4.93;;;3.85;;
50757;SDS011;36732;47.980;11.652;2023-04-06T14:31:30;3.60;;;3.10;;
50757;SDS011;36732;47.980;11.652;2023-04-06T14:33:56;3.85;;;3.45;;
50757;SDS011;36732;47.980;11.652;2023-04-06T14:36:22;4.53;;;3.80;;
50757;SDS011;36732;47.980;11.652;2023-04-06T14:38:48;4.22;;;2.67;;
50757;SDS011;36732;47.980;11.652;2023-04-06T14:41:18;3.63;;;3.30;;
50757;SDS011;36732;47.980;11.652;2023-04-06T14:43:47;3.78;;;3.47;;